createdAt,value
2023-01-12T05:51:35.791Z,1.10
2023-01-12T05:54:03.197Z,1.00
2023-01-12T05:56:30.936Z,1.00
2023-01-12T07:35:51.655Z,0.90
2023-01-12T07:38:18.791Z,1.20
2023-01-12T07:40:45.742Z,0.97
2023-01-12T07:43:15.019Z,1.00
2023-01-12T07:45:41.999Z,1.20
2023-01-12T07:48:09.044Z,1.10
2023-01-12T07:50:36.924Z,1.37
2023-01-12T07:53:04.111Z,1.23
2023-01-12T07:55:31.737Z,1.20
2023-01-12T07:58:03.360Z,1.57
2023-01-12T08:00:31.650Z,2.17
2023-01-12T08:03:06.197Z,3.20
2023-01-12T08:05:40.170Z,1.57
2023-01-12T08:08:07.241Z,1.40
2023-01-12T08:10:33.892Z,1.10
2023-01-12T08:13:00.521Z,0.90
2023-01-12T08:15:27.990Z,0.90
2023-01-12T08:18:05.882Z,0.93
2023-01-12T08:20:34.863Z,0.70
2023-01-12T08:23:05.411Z,0.90
2023-01-12T08:25:38.622Z,1.20
2023-01-12T08:28:07.740Z,1.40
2023-01-12T08:30:34.556Z,2.10
2023-01-12T08:33:01.814Z,1.70
2023-01-12T08:35:30.282Z,2.30
2023-01-12T08:37:57.177Z,13.20
2023-01-12T08:40:24.815Z,13.07
2023-01-12T08:42:51.429Z,4.77
2023-01-12T08:45:18.111Z,4.93
2023-01-12T08:47:45.274Z,3.17
2023-01-12T08:50:12.015Z,1.80
2023-01-12T08:52:38.605Z,1.80
2023-01-12T08:55:05.903Z,2.30
2023-01-12T08:57:32.511Z,1.90
2023-01-12T08:59:59.118Z,2.40
2023-01-12T09:02:27.082Z,2.50
2023-01-12T09:04:53.928Z,1.70
2023-01-12T09:07:20.761Z,1.50
2023-01-12T09:09:52.442Z,1.40
2023-01-12T09:12:19.080Z,2.83
2023-01-12T09:14:45.748Z,4.37
2023-01-12T09:17:12.386Z,5.57
2023-01-12T09:19:39.049Z,6.47
2023-01-12T09:22:05.767Z,3.77
2023-01-12T09:24:32.735Z,2.80
2023-01-12T09:27:01.662Z,2.23
2023-01-12T09:29:28.335Z,3.10
2023-01-12T09:31:55.255Z,3.13
2023-01-12T09:34:22.757Z,4.10
2023-01-12T09:36:52.226Z,2.30
2023-01-12T09:39:27.336Z,2.40
2023-01-12T09:42:14.039Z,2.10
2023-01-12T09:45:04.149Z,5.87
2023-01-12T09:47:48.032Z,2.80
2023-01-12T09:50:23.093Z,2.10
2023-01-12T09:53:11.587Z,1.90
2023-01-12T09:55:44.406Z,1.50
2023-01-12T09:58:32.178Z,1.23
2023-01-12T10:00:59.601Z,1.20
2023-01-12T10:03:35.820Z,1.30
2023-01-12T10:06:02.756Z,1.03
2023-01-12T10:08:29.751Z,1.33
2023-01-12T10:11:27.934Z,1.17
2023-01-12T10:14:17.078Z,1.70
2023-01-12T10:16:47.795Z,11.47
2023-01-12T10:19:26.033Z,2.07
2023-01-12T10:21:55.603Z,1.03
2023-01-12T10:24:24.199Z,1.73
2023-01-12T10:27:01.153Z,3.03
2023-01-12T10:29:29.149Z,3.70
2023-01-12T10:31:55.883Z,3.13
2023-01-12T10:34:22.656Z,1.87
2023-01-12T10:36:50.379Z,1.03
2023-01-12T10:39:31.455Z,0.90
2023-01-12T10:42:40.665Z,0.70
2023-01-12T10:45:10.412Z,0.60
2023-01-12T10:47:37.061Z,0.60
2023-01-12T10:50:43.007Z,0.60
2023-01-12T10:53:16.005Z,0.80
2023-01-12T10:55:43.264Z,0.70
2023-01-12T10:58:30.901Z,0.80
2023-01-12T11:00:57.834Z,1.20
2023-01-12T11:03:33.823Z,1.80
2023-01-12T11:06:16.517Z,0.87
2023-01-12T11:08:43.600Z,0.60
2023-01-12T11:11:36.603Z,0.73
2023-01-12T11:14:04.541Z,0.80
2023-01-12T11:16:34.942Z,0.70
2023-01-12T11:19:15.552Z,0.80
2023-01-12T11:21:46.799Z,0.87
2023-01-12T11:24:41.885Z,0.80
2023-01-12T11:27:24.729Z,0.60
2023-01-12T11:29:58.516Z,1.00
2023-01-12T11:32:32.272Z,0.67
2023-01-12T11:35:04.623Z,0.80
2023-01-12T11:37:33.711Z,0.80
2023-01-12T11:40:06.328Z,0.60
2023-01-12T11:42:53.618Z,0.70
2023-01-12T11:45:27.253Z,0.70
2023-01-12T11:48:00.512Z,0.77
2023-01-12T11:50:31.080Z,0.70
2023-01-12T11:52:58.975Z,0.70
2023-01-12T11:55:40.520Z,0.63
2023-01-12T11:58:26.179Z,0.60
2023-01-12T12:00:58.253Z,0.53
2023-01-12T12:03:52.297Z,0.70
2023-01-12T12:06:43.241Z,0.90
2023-01-12T12:09:48.196Z,0.80
2023-01-12T12:12:31.915Z,0.50
2023-01-12T12:15:03.587Z,0.77
2023-01-12T12:18:20.938Z,0.80
2023-01-12T12:21:00.541Z,0.73
2023-01-12T12:23:48.379Z,0.70
2023-01-12T12:26:25.927Z,0.60
2023-01-12T12:29:15.764Z,0.60
2023-01-12T12:31:57.609Z,0.40
2023-01-12T12:34:54.015Z,0.63
2023-01-12T12:37:29.701Z,0.70
2023-01-12T12:39:57.734Z,0.60
2023-01-12T12:43:12.709Z,0.60
2023-01-12T12:46:05.437Z,0.50
2023-01-12T12:48:38.083Z,0.50
2023-01-12T12:51:09.884Z,0.73
2023-01-12T12:53:45.506Z,0.60
2023-01-12T12:56:14.566Z,0.60
2023-01-12T12:58:42.710Z,0.53
2023-01-12T13:01:21.496Z,0.70
2023-01-12T13:03:53.106Z,0.40
2023-01-12T13:06:39.127Z,0.60
2023-01-12T13:09:11.742Z,0.60
2023-01-12T13:11:54.717Z,0.50
2023-01-12T13:14:32.654Z,0.50
2023-01-12T13:17:03.626Z,0.60
2023-01-12T13:19:35.423Z,0.60
2023-01-12T13:22:27.989Z,2.90
2023-01-12T13:24:56.217Z,1.10
2023-01-12T13:28:00.371Z,0.60
2023-01-12T13:30:26.989Z,0.63
2023-01-12T13:32:53.449Z,0.60
2023-01-12T13:35:23.977Z,0.60
2023-01-12T13:37:57.694Z,0.80
2023-01-12T13:40:29.497Z,0.50
2023-01-12T13:43:17.329Z,0.70
2023-01-12T13:46:03.939Z,0.50
2023-01-12T13:48:34.272Z,0.60
2023-01-12T13:51:23.965Z,0.60
2023-01-12T13:54:00.297Z,0.40
2023-01-12T13:56:27.296Z,0.40
2023-01-12T13:59:01.805Z,0.40
2023-01-12T14:01:30.178Z,0.57
2023-01-12T14:03:59.998Z,0.50
2023-01-12T14:06:56.047Z,0.50
2023-01-12T14:09:34.205Z,0.60
2023-01-12T14:12:31.783Z,0.57
2023-01-12T14:15:26.062Z,0.73
2023-01-12T14:18:02.395Z,0.50
2023-01-12T14:20:31.262Z,0.80
2023-01-12T14:23:14.704Z,0.60
2023-01-12T14:25:42.190Z,0.80
2023-01-12T14:28:20.440Z,0.87
2023-01-12T14:30:52.323Z,1.20
2023-01-12T14:33:20.735Z,1.40
2023-01-12T14:35:49.109Z,1.10
2023-01-12T14:38:18.872Z,0.90
2023-01-12T14:40:50.464Z,1.40
2023-01-12T14:43:35.854Z,1.50
2023-01-12T14:46:21.965Z,0.70
2023-01-12T14:49:16.591Z,1.00
2023-01-12T14:51:53.304Z,1.13
2023-01-12T14:54:25.653Z,1.47
2023-01-12T14:57:07.510Z,1.20
2023-01-12T14:59:36.656Z,1.20
2023-01-12T15:02:15.204Z,4.70
2023-01-12T15:04:56.688Z,2.73
2023-01-12T15:07:24.910Z,8.90
2023-01-12T15:09:57.070Z,7.63
2023-01-12T15:12:29.495Z,2.33
2023-01-12T15:15:14.847Z,1.13
2023-01-12T15:17:59.795Z,1.10
2023-01-12T15:20:48.416Z,2.20
2023-01-12T15:23:33.648Z,4.60
2023-01-12T15:26:00.410Z,4.70
2023-01-12T15:28:28.255Z,5.13
2023-01-12T15:30:55.800Z,3.40
2023-01-12T15:33:22.596Z,2.80
2023-01-12T15:35:49.280Z,2.20
2023-01-12T15:38:16.664Z,3.40
2023-01-12T15:40:43.346Z,4.40
2023-01-12T15:43:14.671Z,8.77
2023-01-12T15:45:48.031Z,22.33
2023-01-12T15:48:14.957Z,9.93
2023-01-12T15:50:43.432Z,4.97
2023-01-12T15:53:24.566Z,3.27
2023-01-12T15:55:51.404Z,3.23
2023-01-12T15:58:19.623Z,3.37
2023-01-12T16:00:46.569Z,3.57
2023-01-12T16:03:32.165Z,3.17
2023-01-12T16:06:20.834Z,3.20
2023-01-12T17:07:52.760Z,7.70
2023-01-12T17:10:31.718Z,7.30
2023-01-12T17:22:16.839Z,9.40
2023-01-12T17:25:04.836Z,11.03
2023-01-12T17:36:49.883Z,12.87
2023-01-12T17:39:37.931Z,13.20
2023-01-12T17:42:27.256Z,16.77
2023-01-12T17:44:55.932Z,15.60
2023-01-12T17:47:34.845Z,17.17
2023-01-12T17:52:52.077Z,12.97
2023-01-12T17:55:31.643Z,24.20
2023-01-12T17:57:59.022Z,15.83
2023-01-12T18:00:25.943Z,17.23
2023-01-12T18:02:54.403Z,17.63
2023-01-12T18:05:21.219Z,18.17
2023-01-12T18:07:47.970Z,15.20
2023-01-12T18:10:18.089Z,15.30
2023-01-12T18:12:57.359Z,14.13
2023-01-12T18:15:24.930Z,10.50
2023-01-12T18:26:33.049Z,4.80
2023-01-12T18:29:01.322Z,4.90
2023-01-12T18:31:31.716Z,5.40
2023-01-12T18:34:03.746Z,5.40
2023-01-12T18:36:31.304Z,5.10
2023-01-12T18:38:58.116Z,5.40
2023-01-12T18:41:43.408Z,5.23
2023-01-12T18:44:10.494Z,5.37
2023-01-12T18:47:02.014Z,4.90
2023-01-12T18:49:30.946Z,5.10
2023-01-12T18:52:16.982Z,5.00
2023-01-12T18:54:45.157Z,4.60
2023-01-12T18:57:14.089Z,4.40
2023-01-12T18:59:41.997Z,4.50
2023-01-12T19:02:11.479Z,5.03
2023-01-12T19:04:58.550Z,6.63
2023-01-12T19:07:44.806Z,5.40
2023-01-12T19:10:11.441Z,6.00
2023-01-12T19:12:38.026Z,6.67
2023-01-12T19:15:24.087Z,5.87
2023-01-12T19:17:50.794Z,5.87
2023-01-12T19:20:17.801Z,6.10
2023-01-12T19:23:02.992Z,5.60
2023-01-12T19:25:47.988Z,5.90
2023-01-12T19:28:35.944Z,6.00
2023-01-12T19:31:09.871Z,5.73
2023-01-12T19:33:37.168Z,6.17
2023-01-12T19:36:09.396Z,5.47
2023-01-12T19:38:36.877Z,5.67
2023-01-12T19:41:13.024Z,5.77
2023-01-12T19:43:45.071Z,6.17
2023-01-12T19:46:13.051Z,6.03
2023-01-12T19:48:39.815Z,11.47
2023-01-12T19:51:10.645Z,24.07
2023-01-12T19:53:38.862Z,8.63
2023-01-12T19:56:12.046Z,8.30
2023-01-12T19:58:38.773Z,8.67
2023-01-12T20:01:05.405Z,9.20
2023-01-12T20:03:32.149Z,8.40
2023-01-12T20:05:58.971Z,9.00
2023-01-12T20:08:25.974Z,9.40
2023-01-12T20:10:57.911Z,9.30
2023-01-12T20:13:25.673Z,9.77
2023-01-12T20:15:53.097Z,9.43
2023-01-12T20:18:20.199Z,8.83
2023-01-12T20:20:46.980Z,8.50
2023-01-12T20:23:18.026Z,8.30
2023-01-12T20:25:44.969Z,8.10
2023-01-12T20:28:13.461Z,8.13
2023-01-12T20:30:41.926Z,8.00
2023-01-12T20:33:09.619Z,8.17
2023-01-12T20:35:38.628Z,8.40
2023-01-12T20:38:07.145Z,8.17
2023-01-12T20:40:33.902Z,7.67
2023-01-12T20:43:00.672Z,9.10
2023-01-12T20:45:27.460Z,11.00
2023-01-12T20:47:55.647Z,9.10
2023-01-12T20:50:23.297Z,9.87
2023-01-12T20:52:51.001Z,9.27
2023-01-12T20:55:17.770Z,9.00
2023-01-12T20:57:44.804Z,9.27
2023-01-12T21:00:11.837Z,9.20
2023-01-12T21:02:38.473Z,11.50
2023-01-12T21:05:05.431Z,11.27
2023-01-12T21:07:32.037Z,11.00
2023-01-12T21:09:58.638Z,14.23
2023-01-12T21:12:27.405Z,16.27
2023-01-12T21:14:54.413Z,24.73
2023-01-12T21:17:21.588Z,26.30
2023-01-12T21:19:48.189Z,28.53
2023-01-12T21:22:14.815Z,27.67
2023-01-12T21:24:41.357Z,31.00
2023-01-12T21:27:07.916Z,33.33
2023-01-12T21:29:42.207Z,25.57
2023-01-12T21:32:09.017Z,23.30
2023-01-12T21:34:35.565Z,14.80
2023-01-12T21:37:02.179Z,14.67
2023-01-12T21:39:28.749Z,14.10
2023-01-12T21:42:14.701Z,19.03
2023-01-12T21:57:14.136Z,24.63
2023-01-12T21:59:40.779Z,20.60
2023-01-12T22:02:10.928Z,19.47
2023-01-12T22:04:37.595Z,17.10
2023-01-12T22:07:04.230Z,12.97
2023-01-12T22:09:30.933Z,12.17
2023-01-12T22:11:57.638Z,10.93
2023-01-12T22:14:24.303Z,10.77
2023-01-12T22:16:51.053Z,9.90
2023-01-12T22:19:17.683Z,10.17
2023-01-12T22:21:44.302Z,10.97
2023-01-12T22:24:10.893Z,10.17
2023-01-12T22:26:37.530Z,14.03
2023-01-12T22:29:04.158Z,17.43
2023-01-12T22:31:30.917Z,23.77
2023-01-12T23:25:35.214Z,4.83
2023-01-12T23:28:02.908Z,4.80
2023-01-12T23:30:30.708Z,4.80
2023-01-12T23:33:01.531Z,4.53
2023-01-12T23:35:28.475Z,4.77
2023-01-12T23:37:55.261Z,6.10
2023-01-12T23:40:22.345Z,5.77
2023-01-12T23:42:49.224Z,5.37
2023-01-12T23:45:17.573Z,4.43
2023-01-12T23:47:44.390Z,3.93
2023-01-12T23:50:12.357Z,3.50
2023-01-12T23:52:40.173Z,4.00
2023-01-12T23:55:07.252Z,4.03
2023-01-12T23:57:34.303Z,4.20
